Time;durP1;ratioP1;P1;durP2;ratioP2;P2;SDS_P1;SDS_P2;PMS_P1;PMS_P2;Temp;Humidity;BMP_temperature;BMP_pressure;BME280_temperature;BME280_humidity;BME280_pressure;Samples;Min_cycle;Max_cycle;Signal;HPM_P1;HPM_P2
2023/06/05 00:01:43;;;;;;;2.80;2.60;;;17.30;92.40;;;;;;5015500;28;20711;-85
2023/06/05 00:04:09;;;;;;;2.77;2.60;;;17.10;93.80;;;;;;4996756;28;20480;-86
2023/06/05 00:06:37;;;;;;;3.57;3.37;;;17.00;95.10;;;;;;5006635;28;20205;-87
2023/06/05 00:09:04;;;;;;;7.77;3.10;;;16.90;96.30;;;;;;5006261;28;20193;-86
2023/06/05 00:11:29;;;;;;;3.83;3.60;;;16.80;97.60;;;;;;5001347;28;20639;-87
2023/06/05 00:13:55;;;;;;;3.97;3.10;;;16.90;98.30;;;;;;4996498;28;20432;-86
2023/06/05 00:16:20;;;;;;;3.43;3.10;;;16.80;99.30;;;;;;5008708;28;20168;-86
2023/06/05 00:18:46;;;;;;;3.10;2.90;;;16.80;99.80;;;;;;4998022;28;20217;-85
2023/06/05 00:21:12;;;;;;;6.20;3.10;;;16.80;99.90;;;;;;5004465;28;20494;-85
2023/06/05 00:23:38;;;;;;;3.57;3.37;;;16.70;99.90;;;;;;5000516;28;20216;-86
2023/06/05 00:26:04;;;;;;;3.37;3.17;;;16.60;99.90;;;;;;4993182;28;20972;-86
2023/06/05 00:28:29;;;;;;;3.27;3.07;;;16.60;99.90;;;;;;4996368;28;20542;-87
2023/06/05 00:30:55;;;;;;;3.77;3.23;;;16.50;99.90;;;;;;5002305;28;20192;-85
2023/06/05 00:33:20;;;;;;;3.70;3.30;;;16.50;99.90;;;;;;5016907;28;20232;-86
2023/06/05 00:35:46;;;;;;;3.23;3.13;;;16.50;99.90;;;;;;5024884;28;20177;-85
2023/06/05 00:38:12;;;;;;;3.10;3.00;;;16.50;99.90;;;;;;5025078;28;20197;-85
2023/06/05 00:40:37;;;;;;;3.50;3.33;;;16.50;99.90;;;;;;5002938;28;20192;-86
2023/06/05 00:43:05;;;;;;;3.20;3.00;;;16.40;99.90;;;;;;5001358;28;20204;-86
2023/06/05 00:45:31;;;;;;;3.20;3.20;;;16.30;99.90;;;;;;4998857;28;20200;-86
2023/06/05 00:47:56;;;;;;;3.67;3.23;;;16.30;99.90;;;;;;5008495;28;20947;-86
2023/06/05 00:50:22;;;;;;;4.43;4.13;;;16.30;99.90;;;;;;5001201;28;20188;-85
2023/06/05 00:52:49;;;;;;;5.20;3.60;;;16.20;99.90;;;;;;5009258;28;20184;-86
2023/06/05 00:55:14;;;;;;;3.67;3.50;;;16.10;99.90;;;;;;4993402;28;20850;-86
2023/06/05 00:57:40;;;;;;;3.53;3.43;;;16.20;99.90;;;;;;4996863;28;20519;-85
2023/06/05 01:00:08;;;;;;;3.90;3.70;;;16.10;99.90;;;;;;4991543;28;20189;-86
2023/06/05 01:02:37;;;;;;;4.37;4.17;;;16.00;99.90;;;;;;4996533;28;20464;-86
2023/06/05 01:05:03;;;;;;;5.20;4.20;;;16.00;99.90;;;;;;5000120;28;20427;-86
2023/06/05 01:07:32;;;;;;;3.97;3.77;;;15.90;99.90;;;;;;4999993;28;20431;-86
2023/06/05 01:10:03;;;;;;;5.03;4.70;;;15.90;99.90;;;;;;4999105;28;20554;-86
2023/06/05 01:12:53;;;;;;;4.63;4.33;;;15.90;99.90;;;;;;4999971;28;20679;-86
2023/06/05 01:15:28;;;;;;;4.33;4.03;;;15.80;99.90;;;;;;4989424;28;20535;-86
2023/06/05 01:17:55;;;;;;;3.80;3.60;;;15.80;99.90;;;;;;5005001;28;20423;-85
2023/06/05 01:20:21;;;;;;;7.90;3.87;;;15.90;99.90;;;;;;5000033;28;20732;-85
2023/06/05 01:22:52;;;;;;;4.77;4.37;;;15.90;99.90;;;;;;5004705;28;20463;-85
2023/06/05 01:25:18;;;;;;;4.23;4.07;;;15.70;99.90;;;;;;4998069;28;20440;-86
2023/06/05 01:27:58;;;;;;;7.00;4.20;;;15.70;99.90;;;;;;5005997;28;20431;-86
2023/06/05 01:31:05;;;;;;;4.57;3.80;;;15.60;99.90;;;;;;5000624;28;20640;-86
2023/06/05 01:33:41;;;;;;;4.20;3.97;;;15.60;99.90;;;;;;4993864;28;20475;-86
2023/06/05 01:36:10;;;;;;;4.67;3.93;;;15.50;99.90;;;;;;4996207;28;20440;-86
2023/06/05 01:38:36;;;;;;;4.27;3.87;;;15.50;99.90;;;;;;4996100;28;20555;-86
2023/06/05 01:41:04;;;;;;;4.63;4.37;;;15.50;99.90;;;;;;4992426;28;20478;-85
2023/06/05 01:43:30;;;;;;;4.30;4.20;;;15.50;99.90;;;;;;4998826;28;20416;-86
2023/06/05 01:45:58;;;;;;;4.20;4.00;;;15.40;99.90;;;;;;4995433;28;20488;-86
2023/06/05 01:48:27;;;;;;;4.27;3.97;;;15.40;99.90;;;;;;4992326;28;20429;-87
2023/06/05 01:50:58;;;;;;;4.73;4.43;;;15.40;99.90;;;;;;4997487;28;20440;-87
2023/06/05 01:53:24;;;;;;;4.77;4.37;;;15.30;99.90;;;;;;5004147;28;20424;-85
2023/06/05 01:55:52;;;;;;;5.10;4.70;;;15.40;99.90;;;;;;4994815;28;20438;-86
2023/06/05 01:58:19;;;;;;;4.63;4.33;;;15.20;99.90;;;;;;5001992;28;20427;-85
2023/06/05 02:00:46;;;;;;;4.73;4.40;;;15.20;99.90;;;;;;4996637;28;20453;-86
2023/06/05 02:03:11;;;;;;;4.20;4.00;;;15.10;99.90;;;;;;4998251;28;20514;-86
2023/06/05 02:05:37;;;;;;;4.73;4.43;;;15.10;99.90;;;;;;4991403;28;20443;-87
2023/06/05 02:08:05;;;;;;;5.40;4.87;;;15.10;99.90;;;;;;4993488;28;20197;-87
2023/06/05 02:10:31;;;;;;;4.87;4.40;;;15.00;99.90;;;;;;4997463;28;20204;-87
2023/06/05 02:12:57;;;;;;;4.70;4.50;;;14.90;99.90;;;;;;4999132;28;20444;-86
2023/06/05 02:15:22;;;;;;;5.63;5.23;;;14.90;99.90;;;;;;4994674;28;20440;-85
2023/06/05 02:17:53;;;;;;;6.77;5.13;;;15.00;99.90;;;;;;4990756;28;20432;-86
2023/06/05 02:20:21;;;;;;;5.40;5.00;;;14.90;99.90;;;;;;4996984;28;20201;-86
2023/06/05 02:22:51;;;;;;;4.87;4.30;;;14.90;99.90;;;;;;4995003;28;20860;-86
2023/06/05 02:25:17;;;;;;;5.13;4.73;;;14.90;99.90;;;;;;5000566;28;20484;-86
2023/06/05 02:27:43;;;;;;;4.50;4.30;;;14.90;99.90;;;;;;5019481;28;20457;-86
2023/06/05 02:30:11;;;;;;;4.87;4.40;;;14.80;99.90;;;;;;5014988;28;20440;-86
2023/06/05 02:32:40;;;;;;;4.50;4.20;;;14.80;99.90;;;;;;5001353;28;20498;-86
2023/06/05 02:35:06;;;;;;;4.07;3.80;;;14.80;99.90;;;;;;4997544;28;20566;-86
2023/06/05 02:37:36;;;;;;;5.77;4.50;;;14.80;99.90;;;;;;5002132;28;20436;-86
2023/06/05 02:40:04;;;;;;;5.50;5.00;;;14.80;99.90;;;;;;4992512;28;20470;-86
2023/06/05 02:42:29;;;;;;;4.77;4.57;;;14.70;99.90;;;;;;4993263;28;20464;-86
2023/06/05 02:44:55;;;;;;;5.47;5.00;;;14.60;99.90;;;;;;4989281;28;20439;-86
2023/06/05 02:47:20;;;;;;;4.60;4.30;;;14.50;99.90;;;;;;5004420;28;20670;-85
2023/06/05 02:49:46;;;;;;;5.27;4.47;;;14.50;99.90;;;;;;4986920;28;20550;-86
2023/06/05 02:52:11;;;;;;;5.13;4.80;;;14.40;99.90;;;;;;4996970;28;20597;-84
2023/06/05 02:54:38;;;;;;;4.63;4.30;;;14.40;99.90;;;;;;4997378;28;20212;-85
2023/06/05 02:57:07;;;;;;;6.07;5.57;;;14.30;99.90;;;;;;5000798;28;20241;-86
2023/06/05 02:59:39;;;;;;;17.17;7.53;;;14.30;99.90;;;;;;4992235;28;20663;-86
2023/06/05 03:02:05;;;;;;;5.53;4.70;;;14.40;99.90;;;;;;4995590;28;20510;-86
2023/06/05 03:04:32;;;;;;;13.80;5.97;;;14.40;99.90;;;;;;4999311;28;20436;-86
2023/06/05 03:07:03;;;;;;;5.47;5.00;;;14.30;99.90;;;;;;5005650;28;20451;-86
2023/06/05 03:09:30;;;;;;;5.00;4.50;;;14.30;99.90;;;;;;4999775;28;20476;-87
2023/06/05 03:11:56;;;;;;;6.77;6.20;;;14.20;99.90;;;;;;5002107;28;20794;-85
2023/06/05 03:14:22;;;;;;;4.40;4.30;;;14.10;99.90;;;;;;4993587;28;20455;-86
2023/06/05 03:16:47;;;;;;;5.07;4.87;;;14.10;99.90;;;;;;5002103;28;20931;-86
2023/06/05 03:19:13;;;;;;;5.13;4.80;;;14.00;99.90;;;;;;4998234;28;20201;-85
2023/06/05 03:21:41;;;;;;;5.60;5.20;;;13.90;99.90;;;;;;4999876;28;20292;-85
2023/06/05 03:24:12;;;;;;;5.90;5.30;;;13.90;99.90;;;;;;4991356;28;20672;-85
2023/06/05 03:26:38;;;;;;;6.30;5.40;;;13.80;99.90;;;;;;5003280;28;21107;-86
2023/06/05 03:29:05;;;;;;;6.57;6.03;;;13.90;99.90;;;;;;4994426;28;20531;-85
2023/06/05 03:31:30;;;;;;;8.00;6.60;;;13.90;99.90;;;;;;5003188;28;20423;-82
2023/06/05 03:33:58;;;;;;;4.73;4.33;;;13.80;99.90;;;;;;5000871;28;20470;-86
2023/06/05 03:36:23;;;;;;;5.33;4.93;;;13.80;99.90;;;;;;5003937;28;20231;-85
2023/06/05 03:38:49;;;;;;;5.70;5.03;;;13.80;99.90;;;;;;4993788;28;20471;-86
2023/06/05 03:41:15;;;;;;;5.33;4.80;;;13.80;99.90;;;;;;4996124;28;20203;-87
2023/06/05 03:43:40;;;;;;;5.70;5.23;;;13.80;99.90;;;;;;4998665;28;20475;-85
2023/06/05 03:46:07;;;;;;;5.90;5.23;;;13.80;99.90;;;;;;4997460;28;20288;-85
2023/06/05 03:48:32;;;;;;;5.67;5.20;;;13.80;99.90;;;;;;4997945;28;20232;-85
2023/06/05 03:51:00;;;;;;;5.40;4.97;;;13.90;99.90;;;;;;4999229;28;20444;-86
2023/06/05 03:53:29;;;;;;;5.40;5.10;;;13.70;99.90;;;;;;5000530;28;20219;-85
2023/06/05 03:55:56;;;;;;;5.77;5.47;;;13.60;99.90;;;;;;5000446;28;20440;-85
2023/06/05 03:58:23;;;;;;;7.73;5.80;;;13.50;99.90;;;;;;4998988;28;20443;-85
2023/06/05 04:00:48;;;;;;;6.10;5.40;;;13.60;99.90;;;;;;5001007;28;20704;-84
2023/06/05 04:03:15;;;;;;;6.30;6.00;;;13.70;99.90;;;;;;5004403;28;20533;-86
2023/06/05 04:05:41;;;;;;;9.70;5.07;;;13.60;99.90;;;;;;4993763;28;20531;-85
2023/06/05 04:08:09;;;;;;;5.47;5.00;;;13.70;99.90;;;;;;4998934;28;20496;-84
2023/06/05 04:10:35;;;;;;;8.63;5.37;;;13.60;99.90;;;;;;4999457;28;20429;-85
2023/06/05 04:13:01;;;;;;;5.77;5.47;;;13.60;99.90;;;;;;5003869;28;20451;-86
2023/06/05 04:15:27;;;;;;;6.07;4.80;;;13.70;99.90;;;;;;4995892;28;20459;-85
2023/06/05 04:17:53;;;;;;;6.27;5.67;;;13.70;99.90;;;;;;5012923;28;20723;-85
2023/06/05 04:20:19;;;;;;;13.23;5.83;;;13.90;99.90;;;;;;5022794;28;20511;-83
2023/06/05 04:22:48;;;;;;;8.90;6.20;;;14.00;99.90;;;;;;5010125;28;20283;-85
2023/06/05 04:25:14;;;;;;;5.67;5.07;;;14.00;99.90;;;;;;5006232;28;20675;-85
2023/06/05 04:27:41;;;;;;;8.50;6.20;;;13.90;99.90;;;;;;5000182;28;20953;-83
2023/06/05 04:30:09;;;;;;;10.10;6.30;;;13.90;99.90;;;;;;5006448;28;20949;-87
2023/06/05 04:32:38;;;;;;;6.20;4.90;;;14.00;99.90;;;;;;4998002;28;20455;-87
2023/06/05 04:35:08;;;;;;;5.73;5.20;;;14.00;99.90;;;;;;4999304;28;20466;-85
2023/06/05 04:37:37;;;;;;;5.67;5.13;;;14.10;99.90;;;;;;5003500;28;20427;-87
2023/06/05 04:40:09;;;;;;;5.67;5.27;;;14.20;99.90;;;;;;4997674;28;20443;-86
2023/06/05 04:42:36;;;;;;;6.53;5.83;;;14.30;99.90;;;;;;5006910;28;20519;-86
2023/06/05 04:45:04;;;;;;;7.53;5.80;;;14.60;99.90;;;;;;5001918;28;20474;-85
2023/06/05 04:47:30;;;;;;;5.00;4.83;;;14.80;99.90;;;;;;4999651;28;20510;-86
2023/06/05 04:50:03;;;;;;;6.30;5.70;;;15.00;99.90;;;;;;4999639;28;20444;-86
2023/06/05 04:52:30;;;;;;;5.87;5.47;;;15.00;99.90;;;;;;5003249;28;20467;-86
2023/06/05 04:54:57;;;;;;;5.97;5.20;;;15.30;99.90;;;;;;4998220;28;20874;-86
2023/06/05 04:57:25;;;;;;;6.53;6.03;;;15.40;99.90;;;;;;5000517;28;20435;-85
2023/06/05 04:59:51;;;;;;;6.30;5.80;;;15.60;99.90;;;;;;4998403;28;20442;-84
2023/06/05 05:02:16;;;;;;;6.87;6.47;;;15.60;99.90;;;;;;5004094;28;20479;-84
2023/06/05 05:04:42;;;;;;;6.27;5.90;;;15.70;99.90;;;;;;5000045;28;20302;-86
2023/06/05 05:07:13;;;;;;;6.00;5.60;;;15.90;99.90;;;;;;5010037;28;20201;-87
2023/06/05 05:09:38;;;;;;;9.63;6.40;;;16.00;99.90;;;;;;5001336;28;20200;-82
2023/06/05 05:12:04;;;;;;;17.70;9.07;;;15.90;99.90;;;;;;5004513;28;20466;-86
2023/06/05 05:14:30;;;;;;;7.00;6.40;;;15.90;99.90;;;;;;5021173;28;20220;-84
2023/06/05 05:16:55;;;;;;;6.30;5.80;;;15.90;99.90;;;;;;5011056;28;20219;-87
2023/06/05 05:19:22;;;;;;;6.90;6.20;;;16.30;99.90;;;;;;5001685;28;20550;-87
2023/06/05 05:21:47;;;;;;;6.20;5.80;;;16.50;99.90;;;;;;5010168;28;20205;-87
2023/06/05 05:24:13;;;;;;;6.77;6.20;;;16.50;99.90;;;;;;4996901;28;20763;-86
2023/06/05 05:26:42;;;;;;;7.87;6.10;;;16.70;99.90;;;;;;5003109;28;20440;-86
2023/06/05 05:29:08;;;;;;;6.20;5.83;;;17.00;99.90;;;;;;5010790;28;20192;-83
2023/06/05 05:31:34;;;;;;;5.77;5.40;;;16.80;99.90;;;;;;5012857;28;20436;-86
2023/06/05 05:33:59;;;;;;;6.63;6.03;;;16.90;99.90;;;;;;5001784;28;20451;-84
2023/06/05 05:36:26;;;;;;;6.40;6.20;;;17.30;99.90;;;;;;5004285;28;20427;-86
2023/06/05 05:38:52;;;;;;;7.50;6.77;;;17.30;99.90;;;;;;5001852;28;20209;-84
2023/06/05 05:41:18;;;;;;;6.77;6.30;;;17.60;99.90;;;;;;5003730;28;20478;-82
2023/06/05 05:43:44;;;;;;;6.97;6.43;;;17.70;99.90;;;;;;4999482;28;20449;-88
2023/06/05 05:46:10;;;;;;;11.70;6.57;;;17.90;99.90;;;;;;4995456;28;20189;-87
2023/06/05 05:48:36;;;;;;;7.00;6.50;;;18.20;99.90;;;;;;4997098;28;20585;-85
2023/06/05 05:51:02;;;;;;;6.97;6.47;;;18.40;99.90;;;;;;5010159;28;20229;-87
2023/06/05 05:53:27;;;;;;;6.30;6.00;;;18.40;99.40;;;;;;5006860;28;21056;-83
2023/06/05 05:55:53;;;;;;;7.40;6.80;;;18.50;99.50;;;;;;5008307;28;20203;-87
2023/06/05 05:58:19;;;;;;;7.37;6.97;;;18.80;99.00;;;;;;5005619;28;20188;-87
2023/06/05 06:00:45;;;;;;;7.37;6.60;;;18.90;98.50;;;;;;5015509;28;20419;-81
2023/06/05 06:03:11;;;;;;;7.60;6.67;;;19.10;97.60;;;;;;5012757;28;20451;-87
2023/06/05 06:05:37;;;;;;;8.43;7.27;;;19.00;97.00;;;;;;5016711;28;20435;-85
2023/06/05 06:08:03;;;;;;;6.63;6.13;;;19.50;96.90;;;;;;5011041;28;20436;-86
2023/06/05 06:10:30;;;;;;;7.50;6.93;;;19.80;95.60;;;;;;5017250;28;20470;-85
2023/06/05 06:12:56;;;;;;;7.73;7.17;;;20.00;94.70;;;;;;5029706;28;20428;-85
2023/06/05 06:15:22;;;;;;;8.10;7.50;;;20.10;94.50;;;;;;5020080;28;20577;-85
2023/06/05 06:17:47;;;;;;;8.70;7.67;;;20.20;94.00;;;;;;5020844;28;20443;-87
2023/06/05 06:20:15;;;;;;;7.40;6.80;;;20.40;93.40;;;;;;5012548;28;20198;-85
2023/06/05 06:22:41;;;;;;;7.27;6.77;;;20.40;92.80;;;;;;5008695;28;20205;-85
2023/06/05 06:25:10;;;;;;;7.97;6.53;;;20.40;92.50;;;;;;5005232;28;20554;-86
2023/06/05 06:27:38;;;;;;;9.23;6.50;;;20.40;92.50;;;;;;5004251;28;20563;-85
2023/06/05 06:30:05;;;;;;;6.57;6.17;;;20.60;92.10;;;;;;4999741;28;20492;-87
2023/06/05 06:32:30;;;;;;;7.43;6.83;;;20.50;91.70;;;;;;5009788;28;20463;-81
2023/06/05 06:34:57;;;;;;;7.83;7.23;;;20.90;91.80;;;;;;5009255;28;20455;-86
2023/06/05 06:37:22;;;;;;;6.80;6.30;;;21.40;90.70;;;;;;5009788;28;20439;-86
2023/06/05 06:39:49;;;;;;;7.67;7.13;;;21.70;88.90;;;;;;5001623;28;20566;-82
2023/06/05 06:42:14;;;;;;;6.37;5.97;;;22.00;86.80;;;;;;5004212;28;20498;-83
2023/06/05 06:44:40;;;;;;;6.80;6.20;;;22.20;85.70;;;;;;4999467;28;20471;-83
2023/06/05 06:47:07;;;;;;;6.50;6.07;;;22.60;82.90;;;;;;5000288;28;20431;-83
2023/06/05 06:49:35;;;;;;;5.73;5.43;;;22.90;80.90;;;;;;4998462;28;20978;-83
2023/06/05 06:52:01;;;;;;;6.80;6.20;;;23.10;79.20;;;;;;4997029;28;20513;-85
2023/06/05 06:54:28;;;;;;;6.30;5.87;;;23.00;78.10;;;;;;4997980;28;20439;-83
2023/06/05 06:56:54;;;;;;;6.33;5.80;;;23.20;77.00;;;;;;4998548;28;20443;-82
2023/06/05 06:59:29;;;;;;;6.60;5.93;;;22.90;77.10;;;;;;4989614;28;21093;-83
2023/06/05 07:02:17;;;;;;;6.83;6.07;;;23.20;77.00;;;;;;5003227;28;20451;-85
2023/06/05 07:04:44;;;;;;;5.40;5.10;;;23.10;76.40;;;;;;4997631;28;20448;-85
2023/06/05 07:07:12;;;;;;;6.80;6.43;;;23.70;73.90;;;;;;5004616;28;20430;-85
2023/06/05 07:09:42;;;;;;;5.00;4.70;;;23.60;72.50;;;;;;4991852;28;20449;-82
2023/06/05 07:12:12;;;;;;;6.03;5.63;;;24.00;72.20;;;;;;4996858;28;20444;-85
2023/06/05 07:14:38;;;;;;;6.33;5.87;;;24.30;69.20;;;;;;4998397;28;20940;-84
2023/06/05 07:17:04;;;;;;;5.93;5.40;;;24.60;68.50;;;;;;5002586;28;20462;-84
2023/06/05 07:19:31;;;;;;;7.00;6.30;;;25.10;65.20;;;;;;4998790;28;20950;-86
2023/06/05 07:21:58;;;;;;;5.63;5.13;;;24.90;64.20;;;;;;4996880;28;20469;-87
2023/06/05 07:24:25;;;;;;;6.13;5.63;;;25.10;63.40;;;;;;4998245;28;20450;-83
2023/06/05 07:26:57;;;;;;;5.97;5.47;;;25.60;60.70;;;;;;5003212;28;20447;-79
2023/06/05 07:29:24;;;;;;;6.00;5.70;;;24.90;60.20;;;;;;4995219;28;20491;-80
2023/06/05 07:31:57;;;;;;;5.63;5.30;;;24.90;59.90;;;;;;5000813;28;20431;-83
2023/06/05 07:34:24;;;;;;;5.50;5.10;;;25.60;58.90;;;;;;4993707;28;20919;-84
2023/06/05 07:36:51;;;;;;;9.17;7.13;;;26.30;61.10;;;;;;5001585;28;20435;-85
2023/06/05 07:39:18;;;;;;;6.43;5.77;;;25.70;60.90;;;;;;5001774;28;20462;-85
2023/06/05 07:41:44;;;;;;;6.80;6.20;;;24.80;64.10;;;;;;5000374;28;20503;-83
2023/06/05 07:44:11;;;;;;;7.13;6.73;;;24.50;66.90;;;;;;4993408;28;20447;-84
2023/06/05 07:46:39;;;;;;;6.27;5.77;;;24.70;66.90;;;;;;4996428;28;20197;-83
2023/06/05 07:49:05;;;;;;;6.50;5.90;;;25.30;66.00;;;;;;4993978;28;20452;-84
2023/06/05 07:51:35;;;;;;;6.10;5.60;;;26.10;64.10;;;;;;4996866;28;20440;-81
2023/06/05 07:54:02;;;;;;;6.60;6.10;;;26.70;60.80;;;;;;5005278;28;20188;-86
2023/06/05 07:56:28;;;;;;;6.23;5.83;;;27.50;73.00;;;;;;5010150;28;20470;-85
2023/06/05 07:58:53;;;;;;;6.47;5.97;;;28.00;72.90;;;;;;5005303;28;20825;-83
2023/06/05 08:01:20;;;;;;;5.10;4.60;;;27.50;66.80;;;;;;5013381;28;20467;-85
2023/06/05 08:03:46;;;;;;;6.53;6.00;;;27.70;67.10;;;;;;5020433;28;20207;-84
2023/06/05 08:06:12;;;;;;;5.67;5.17;;;28.10;65.70;;;;;;5023427;28;20573;-85
2023/06/05 08:08:37;;;;;;;6.53;5.57;;;27.50;63.00;;;;;;5018022;28;20235;-85
2023/06/05 08:11:03;;;;;;;6.23;5.77;;;27.50;64.90;;;;;;5024108;28;20240;-86
2023/06/05 08:13:29;;;;;;;5.67;5.20;;;28.10;63.20;;;;;;5014823;28;20570;-86
2023/06/05 08:15:55;;;;;;;5.50;5.00;;;28.60;60.60;;;;;;5006813;28;20172;-86
2023/06/05 08:18:21;;;;;;;5.50;5.13;;;28.80;61.30;;;;;;5001942;28;20442;-84
2023/06/05 08:20:46;;;;;;;5.20;4.70;;;29.30;59.00;;;;;;5005164;28;20685;-83
2023/06/05 08:23:13;;;;;;;11.63;5.87;;;29.50;58.60;;;;;;4992936;28;20668;-84
2023/06/05 08:25:38;;;;;;;6.90;5.80;;;29.80;58.30;;;;;;5007943;28;20206;-84
2023/06/05 08:28:04;;;;;;;6.80;6.13;;;29.40;57.70;;;;;;5004039;28;20620;-84
2023/06/05 08:30:30;;;;;;;5.90;5.40;;;29.60;57.80;;;;;;5009040;28;20449;-83
2023/06/05 08:32:55;;;;;;;11.13;6.57;;;29.80;57.60;;;;;;5011961;28;20261;-85
2023/06/05 08:35:21;;;;;;;6.17;5.87;;;30.30;57.30;;;;;;5008254;28;20536;-86
2023/06/05 08:37:46;;;;;;;6.57;5.97;;;30.00;56.40;;;;;;5005028;28;20185;-86
2023/06/05 08:40:12;;;;;;;6.10;5.30;;;28.90;56.80;;;;;;5005578;28;20197;-84
2023/06/05 08:42:41;;;;;;;6.93;5.20;;;28.10;57.00;;;;;;5008334;28;20209;-84
2023/06/05 08:45:08;;;;;;;6.07;5.50;;;27.50;58.10;;;;;;5011675;28;20440;-83
2023/06/05 08:47:41;;;;;;;7.07;6.33;;;27.90;58.30;;;;;;5023059;28;20583;-82
2023/06/05 08:50:08;;;;;;;6.77;6.23;;;27.90;58.40;;;;;;5004239;28;20456;-84
2023/06/05 08:52:37;;;;;;;9.47;5.73;;;27.90;57.50;;;;;;5017020;28;20440;-85
2023/06/05 08:55:06;;;;;;;11.60;10.40;;;26.70;58.20;;;;;;5007554;28;20440;-79
2023/06/05 08:57:33;;;;;;;7.77;5.87;;;26.80;58.60;;;;;;5000562;28;20575;-84
2023/06/05 09:00:00;;;;;;;5.23;4.93;;;27.20;58.90;;;;;;4995034;28;20854;-81
2023/06/05 09:02:26;;;;;;;5.53;5.03;;;27.90;58.10;;;;;;5002626;28;20549;-84
2023/06/05 09:04:51;;;;;;;6.03;4.60;;;28.30;56.50;;;;;;4996177;28;20523;-82
2023/06/05 09:07:18;;;;;;;5.37;5.10;;;28.10;57.00;;;;;;4998383;28;20247;-81
2023/06/05 09:09:44;;;;;;;4.40;4.20;;;28.60;56.90;;;;;;5014455;28;20192;-82
2023/06/05 09:12:09;;;;;;;5.17;4.90;;;28.50;55.80;;;;;;5014987;28;20434;-84
2023/06/05 09:14:35;;;;;;;5.00;4.80;;;28.30;56.10;;;;;;5011857;28;20466;-83
2023/06/05 09:17:03;;;;;;;6.43;5.53;;;28.10;56.70;;;;;;5013149;28;20454;-85
2023/06/05 09:19:43;;;;;;;6.10;4.83;;;;;;;;;;5004254;28;20450;-86
2023/06/05 09:22:09;;;;;;;5.80;5.50;;;;;;;;;;5000108;28;20471;-86
2023/06/05 09:24:37;;;;;;;5.27;4.90;;;;;;;;;;5011245;28;20532;-85
2023/06/05 09:27:11;;;;;;;5.73;5.43;;;29.40;59.00;;;;;;5004552;28;20440;-84
2023/06/05 09:29:38;;;;;;;5.40;5.00;;;29.90;58.50;;;;;;4989807;28;20772;-85
2023/06/05 09:32:06;;;;;;;10.23;5.73;;;31.00;57.40;;;;;;4994192;28;20544;-87
2023/06/05 09:34:36;;;;;;;5.33;5.03;;;30.90;57.20;;;;;;4999671;28;20494;-83
2023/06/05 09:37:04;;;;;;;5.37;5.07;;;30.70;57.50;;;;;;5004488;28;20450;-84
2023/06/05 09:39:32;;;;;;;5.87;5.47;;;31.40;56.90;;;;;;4997981;28;21137;-83
2023/06/05 09:41:59;;;;;;;4.70;4.40;;;31.10;56.60;;;;;;4998745;28;20475;-84
2023/06/05 09:44:26;;;;;;;5.33;4.90;;;31.60;56.70;;;;;;4998771;28;20432;-85
2023/06/05 09:46:59;;;;;;;5.23;4.93;;;30.40;56.50;;;;;;5001542;28;20438;-84
2023/06/05 09:49:27;;;;;;;5.03;4.83;;;29.90;56.70;;;;;;5001767;28;20531;-86
2023/06/05 09:51:55;;;;;;;6.07;5.57;;;29.30;57.70;;;;;;5004087;28;20431;-86
2023/06/05 09:54:22;;;;;;;5.63;5.23;;;30.10;57.40;;;;;;4996619;28;20441;-85
2023/06/05 09:56:49;;;;;;;6.13;5.17;;;31.20;56.50;;;;;;4998678;28;20479;-83
2023/06/05 09:59:21;;;;;;;5.43;5.07;;;30.50;56.10;;;;;;5006219;28;20463;-88
2023/06/05 10:01:50;;;;;;;5.33;5.00;;;30.70;56.80;;;;;;5004958;28;20463;-86
2023/06/05 10:04:18;;;;;;;5.60;5.30;;;31.20;55.60;;;;;;5010182;28;20458;-87
2023/06/05 10:06:45;;;;;;;6.17;3.90;;;31.30;55.50;;;;;;5027611;28;20463;-84
2023/06/05 10:09:11;;;;;;;8.43;6.20;;;30.50;56.70;;;;;;5021340;28;20455;-85
2023/06/05 10:11:38;;;;;;;4.90;4.70;;;31.20;56.80;;;;;;5006429;28;20439;-86
2023/06/05 10:14:05;;;;;;;4.37;4.10;;;31.80;56.50;;;;;;5018037;28;20439;-87
2023/06/05 10:16:31;;;;;;;4.90;4.70;;;32.30;54.90;;;;;;5007972;28;20500;-83
2023/06/05 10:18:57;;;;;;;5.47;5.03;;;32.30;55.60;;;;;;4995577;28;21407;-82
2023/06/05 10:21:24;;;;;;;4.80;4.53;;;;;;;;;;4999427;28;20494;-83
2023/06/05 10:24:07;;;;;;;5.00;4.77;;;33.50;39.70;;;;;;5000763;28;21158;-84
2023/06/05 10:27:04;;;;;;;5.37;4.80;;;33.80;39.20;;;;;;5002810;28;20423;-84
2023/06/05 10:29:32;;;;;;;5.10;4.90;;;33.40;39.00;;;;;;5005695;28;20498;-82
2023/06/05 10:32:03;;;;;;;6.00;5.70;;;32.70;38.90;;;;;;5005277;28;20448;-80
2023/06/05 10:35:01;;;;;;;5.70;5.30;;;32.00;39.70;;;;;;4997953;28;20472;-81
2023/06/05 10:37:43;;;;;;;5.10;4.80;;;33.00;38.00;;;;;;4995603;28;20514;-84
2023/06/05 10:40:10;;;;;;;5.83;5.33;;;33.30;38.70;;;;;;5001918;28;20842;-82
2023/06/05 10:42:36;;;;;;;5.37;5.10;;;32.20;38.60;;;;;;5001841;28;20466;-85
2023/06/05 10:45:02;;;;;;;4.50;4.10;;;32.80;38.80;;;;;;5001155;28;20950;-85
2023/06/05 10:47:37;;;;;;;4.83;4.53;;;33.10;38.80;;;;;;5001840;28;20950;-80
2023/06/05 10:50:21;;;;;;;4.63;4.47;;;33.40;37.80;;;;;;5002707;28;21001;-82
2023/06/05 10:52:49;;;;;;;4.57;4.27;;;33.20;37.40;;;;;;5004009;28;20440;-80
2023/06/05 10:55:18;;;;;;;4.67;4.47;;;33.50;36.90;;;;;;5001491;28;20510;-79
2023/06/05 10:58:07;;;;;;;5.33;4.67;;;31.90;37.50;;;;;;5000285;28;20443;-80
2023/06/05 11:00:33;;;;;;;4.33;4.23;;;32.20;37.60;;;;;;5023977;28;20434;-83
2023/06/05 11:02:59;;;;;;;4.20;4.10;;;31.70;36.90;;;;;;5002354;28;20475;-80
2023/06/05 11:05:25;;;;;;;4.43;4.13;;;32.50;36.40;;;;;;4999429;28;20913;-83
2023/06/05 11:08:10;;;;;;;3.90;3.60;;;32.80;36.70;;;;;;5002335;28;20809;-82
2023/06/05 11:10:36;;;;;;;5.03;4.83;;;33.20;36.50;;;;;;5004617;28;20443;-84
2023/06/05 11:13:02;;;;;;;4.70;4.40;;;33.50;36.80;;;;;;5007779;28;20432;-85
2023/06/05 11:15:30;;;;;;;4.70;4.30;;;33.30;35.70;;;;;;5011504;28;20200;-82
2023/06/05 11:17:56;;;;;;;4.27;4.07;;;31.90;36.60;;;;;;5007543;28;20440;-83
2023/06/05 11:20:28;;;;;;;3.90;3.60;;;32.90;36.60;;;;;;5010586;28;20503;-84
2023/06/05 11:22:53;;;;;;;5.80;4.10;;;33.80;36.10;;;;;;5000157;28;20527;-83
2023/06/05 11:25:24;;;;;;;3.83;3.63;;;33.90;34.80;;;;;;5002863;28;21109;-82
2023/06/05 11:28:00;;;;;;;3.97;3.77;;;34.10;34.70;;;;;;5000938;28;20272;-83
2023/06/05 11:30:31;;;;;;;4.60;4.40;;;34.50;34.90;;;;;;4999203;28;20421;-82
2023/06/05 11:33:12;;;;;;;3.47;3.40;;;35.00;34.70;;;;;;5002256;28;20498;-83
2023/06/05 11:35:38;;;;;;;3.37;3.27;;;35.60;34.00;;;;;;5013938;28;20423;-82
2023/06/05 11:38:13;;;;;;;4.00;3.80;;;35.70;33.60;;;;;;5008689;28;20441;-82
2023/06/05 11:40:40;;;;;;;4.27;3.80;;;36.40;33.50;;;;;;5021018;28;20442;-83
2023/06/05 11:43:07;;;;;;;4.50;4.10;;;35.60;33.50;;;;;;5007827;28;20558;-85
2023/06/05 11:45:35;;;;;;;5.07;4.87;;;35.50;34.10;;;;;;5002145;28;20564;-82
2023/06/05 11:48:07;;;;;;;5.23;4.93;;;35.60;33.80;;;;;;4999937;28;20460;-86
2023/06/05 11:50:34;;;;;;;4.40;4.10;;;35.40;34.00;;;;;;5004173;28;20447;-85
2023/06/05 11:53:12;;;;;;;5.47;5.17;;;35.80;32.80;;;;;;5005135;28;20456;-86
2023/06/05 11:56:11;;;;;;;3.00;2.90;;;34.90;32.50;;;;;;5008571;28;20436;-87
2023/06/05 11:58:37;;;;;;;4.17;3.97;;;35.30;32.70;;;;;;5013740;28;20411;-87
2023/06/05 12:01:14;;;;;;;9.70;9.20;;;36.50;32.70;;;;;;5020546;28;20419;-84
2023/06/05 12:03:40;;;;;;;3.70;3.60;;;35.40;32.30;;;;;;5019171;28;20474;-84
2023/06/05 12:06:06;;;;;;;3.23;3.23;;;34.40;32.70;;;;;;5021463;28;20498;-85
2023/06/05 12:08:36;;;;;;;5.80;3.60;;;34.00;32.90;;;;;;5002656;28;20617;-83
2023/06/05 12:11:26;;;;;;;4.43;3.80;;;32.70;33.70;;;;;;5008918;28;20207;-85
2023/06/05 12:13:53;;;;;;;3.67;3.50;;;33.10;33.60;;;;;;5001934;28;20452;-86
2023/06/05 12:16:33;;;;;;;3.90;3.60;;;33.20;33.70;;;;;;4997717;28;21421;-83
2023/06/05 12:18:59;;;;;;;5.80;3.90;;;33.80;33.80;;;;;;5003496;28;20447;-84
2023/06/05 12:21:26;;;;;;;6.53;4.40;;;34.60;32.80;;;;;;4994949;28;20460;-85
2023/06/05 12:24:00;;;;;;;3.80;3.60;;;35.40;32.70;;;;;;5006223;28;20430;-85
2023/06/05 12:26:25;;;;;;;4.67;4.37;;;35.30;32.50;;;;;;5005915;28;20470;-86
2023/06/05 12:29:03;;;;;;;3.07;3.00;;;34.90;32.60;;;;;;5006947;28;20741;-86
2023/06/05 12:31:39;;;;;;;3.90;3.70;;;35.50;32.40;;;;;;5000366;28;20193;-85
2023/06/05 12:34:05;;;;;;;3.57;3.50;;;35.10;32.30;;;;;;5020747;28;20468;-84
2023/06/05 12:36:37;;;;;;;3.47;3.47;;;34.70;32.90;;;;;;5005940;28;20794;-86
2023/06/05 12:39:06;;;;;;;4.03;3.73;;;34.80;32.30;;;;;;5006203;28;20451;-86
2023/06/05 12:41:33;;;;;;;7.40;3.80;;;35.30;32.60;;;;;;5002028;28;20478;-85
2023/06/05 12:44:06;;;;;;;3.70;3.50;;;35.60;32.20;;;;;;5006478;28;20419;-85
2023/06/05 12:46:33;;;;;;;3.57;3.50;;;35.60;32.20;;;;;;4995267;28;20436;-85
2023/06/05 12:49:04;;;;;;;4.17;3.77;;;34.90;31.90;;;;;;5001110;28;20448;-84
2023/06/05 12:51:30;;;;;;;3.60;3.50;;;33.40;32.30;;;;;;5000633;28;20427;-83
2023/06/05 12:53:59;;;;;;;8.23;4.40;;;33.40;32.90;;;;;;5000186;28;20454;-83